sensor_id;sensor_type;location;lat;lon;timestamp;P1;durP1;ratioP1;P2;durP2;ratioP2
22064;SDS011;11197;53.110;8.468;2022-12-10T00:01:52;48.00;;;23.63;;
22064;SDS011;11197;53.110;8.468;2022-12-10T00:04:18;52.92;;;23.73;;
22064;SDS011;11197;53.110;8.468;2022-12-10T00:06:44;49.03;;;24.35;;
22064;SDS011;11197;53.110;8.468;2022-12-10T00:09:12;50.17;;;24.50;;
22064;SDS011;11197;53.110;8.468;2022-12-10T00:11:39;50.55;;;24.50;;
22064;SDS011;11197;53.110;8.468;2022-12-10T00:14:06;46.92;;;23.38;;
22064;SDS011;11197;53.110;8.468;2022-12-10T00:16:32;47.10;;;23.23;;
22064;SDS011;11197;53.110;8.468;2022-12-10T00:18:59;50.13;;;24.45;;
22064;SDS011;11197;53.110;8.468;2022-12-10T00:21:26;45.85;;;22.35;;
22064;SDS011;11197;53.110;8.468;2022-12-10T00:23:54;48.08;;;22.95;;
22064;SDS011;11197;53.110;8.468;2022-12-10T00:26:21;49.95;;;24.30;;
22064;SDS011;11197;53.110;8.468;2022-12-10T00:28:49;49.58;;;24.35;;
22064;SDS011;11197;53.110;8.468;2022-12-10T00:31:20;54.15;;;24.20;;
22064;SDS011;11197;53.110;8.468;2022-12-10T00:33:48;50.75;;;23.70;;
22064;SDS011;11197;53.110;8.468;2022-12-10T00:36:18;46.80;;;24.08;;
22064;SDS011;11197;53.110;8.468;2022-12-10T00:38:46;49.45;;;24.38;;
22064;SDS011;11197;53.110;8.468;2022-12-10T00:41:12;49.00;;;24.10;;
22064;SDS011;11197;53.110;8.468;2022-12-10T00:43:39;50.90;;;23.77;;
22064;SDS011;11197;53.110;8.468;2022-12-10T00:46:06;48.83;;;23.05;;
22064;SDS011;11197;53.110;8.468;2022-12-10T00:48:32;49.00;;;24.35;;
22064;SDS011;11197;53.110;8.468;2022-12-10T00:50:59;47.78;;;23.63;;
22064;SDS011;11197;53.110;8.468;2022-12-10T00:53:28;50.00;;;24.17;;
22064;SDS011;11197;53.110;8.468;2022-12-10T00:55:54;47.50;;;22.85;;
22064;SDS011;11197;53.110;8.468;2022-12-10T00:58:21;47.95;;;24.00;;
22064;SDS011;11197;53.110;8.468;2022-12-10T01:00:48;49.85;;;23.40;;
22064;SDS011;11197;53.110;8.468;2022-12-10T01:03:15;48.38;;;22.98;;
22064;SDS011;11197;53.110;8.468;2022-12-10T01:05:43;47.33;;;23.08;;
22064;SDS011;11197;53.110;8.468;2022-12-10T01:08:09;48.70;;;24.02;;
22064;SDS011;11197;53.110;8.468;2022-12-10T01:10:36;49.38;;;24.35;;
22064;SDS011;11197;53.110;8.468;2022-12-10T01:13:02;46.08;;;22.90;;
22064;SDS011;11197;53.110;8.468;2022-12-10T01:15:29;49.88;;;24.17;;
22064;SDS011;11197;53.110;8.468;2022-12-10T01:17:55;49.60;;;22.88;;
22064;SDS011;11197;53.110;8.468;2022-12-10T01:20:21;50.30;;;23.30;;
22064;SDS011;11197;53.110;8.468;2022-12-10T01:22:51;50.55;;;24.33;;
22064;SDS011;11197;53.110;8.468;2022-12-10T01:25:17;49.10;;;23.90;;
22064;SDS011;11197;53.110;8.468;2022-12-10T01:27:43;53.55;;;25.13;;
22064;SDS011;11197;53.110;8.468;2022-12-10T01:30:09;46.50;;;23.50;;
22064;SDS011;11197;53.110;8.468;2022-12-10T01:32:35;47.92;;;23.52;;
22064;SDS011;11197;53.110;8.468;2022-12-10T01:35:01;52.63;;;24.23;;
22064;SDS011;11197;53.110;8.468;2022-12-10T01:37:27;51.67;;;24.42;;
22064;SDS011;11197;53.110;8.468;2022-12-10T01:39:52;50.95;;;23.73;;
22064;SDS011;11197;53.110;8.468;2022-12-10T01:42:18;50.03;;;23.88;;
22064;SDS011;11197;53.110;8.468;2022-12-10T01:47:13;46.90;;;23.75;;
22064;SDS011;11197;53.110;8.468;2022-12-10T01:49:39;49.22;;;23.63;;
22064;SDS011;11197;53.110;8.468;2022-12-10T01:52:07;49.03;;;23.48;;
22064;SDS011;11197;53.110;8.468;2022-12-10T01:54:39;51.53;;;24.48;;
22064;SDS011;11197;53.110;8.468;2022-12-10T01:57:08;47.50;;;22.90;;
22064;SDS011;11197;53.110;8.468;2022-12-10T01:59:35;49.55;;;23.70;;
22064;SDS011;11197;53.110;8.468;2022-12-10T02:02:11;53.95;;;25.85;;
22064;SDS011;11197;53.110;8.468;2022-12-10T02:15:24;53.15;;;24.67;;
22064;SDS011;11197;53.110;8.468;2022-12-10T02:17:54;47.95;;;22.75;;
22064;SDS011;11197;53.110;8.468;2022-12-10T02:20:32;53.70;;;23.40;;
22064;SDS011;11197;53.110;8.468;2022-12-10T02:23:20;46.63;;;23.02;;
22064;SDS011;11197;53.110;8.468;2022-12-10T02:28:45;48.28;;;22.63;;
22064;SDS011;11197;53.110;8.468;2022-12-10T02:31:14;50.75;;;23.88;;
22064;SDS011;11197;53.110;8.468;2022-12-10T02:33:46;48.65;;;22.60;;
22064;SDS011;11197;53.110;8.468;2022-12-10T02:36:20;46.20;;;21.88;;
22064;SDS011;11197;53.110;8.468;2022-12-10T02:38:51;49.65;;;23.45;;
22064;SDS011;11197;53.110;8.468;2022-12-10T02:41:28;50.88;;;24.63;;
22064;SDS011;11197;53.110;8.468;2022-12-10T02:44:00;45.80;;;23.15;;
22064;SDS011;11197;53.110;8.468;2022-12-10T02:46:30;54.35;;;24.25;;
22064;SDS011;11197;53.110;8.468;2022-12-10T02:49:03;47.80;;;23.27;;
22064;SDS011;11197;53.110;8.468;2022-12-10T02:51:32;48.22;;;23.60;;
22064;SDS011;11197;53.110;8.468;2022-12-10T02:54:02;46.05;;;22.65;;
22064;SDS011;11197;53.110;8.468;2022-12-10T02:56:34;50.47;;;24.35;;
22064;SDS011;11197;53.110;8.468;2022-12-10T03:07:35;47.28;;;22.83;;
22064;SDS011;11197;53.110;8.468;2022-12-10T03:10:18;47.42;;;23.08;;
22064;SDS011;11197;53.110;8.468;2022-12-10T03:12:56;52.08;;;23.75;;
22064;SDS011;11197;53.110;8.468;2022-12-10T03:15:25;50.72;;;24.30;;
22064;SDS011;11197;53.110;8.468;2022-12-10T03:17:53;52.03;;;24.65;;
22064;SDS011;11197;53.110;8.468;2022-12-10T03:20:21;49.75;;;24.35;;
22064;SDS011;11197;53.110;8.468;2022-12-10T03:22:49;49.63;;;24.45;;
22064;SDS011;11197;53.110;8.468;2022-12-10T03:25:17;53.22;;;25.35;;
22064;SDS011;11197;53.110;8.468;2022-12-10T03:27:48;50.47;;;24.42;;
22064;SDS011;11197;53.110;8.468;2022-12-10T03:30:16;47.53;;;24.52;;
22064;SDS011;11197;53.110;8.468;2022-12-10T03:32:45;48.40;;;24.30;;
22064;SDS011;11197;53.110;8.468;2022-12-10T03:35:12;50.17;;;24.42;;
22064;SDS011;11197;53.110;8.468;2022-12-10T03:37:39;48.28;;;24.30;;
22064;SDS011;11197;53.110;8.468;2022-12-10T03:40:05;51.22;;;24.42;;
22064;SDS011;11197;53.110;8.468;2022-12-10T03:42:34;49.00;;;24.42;;
22064;SDS011;11197;53.110;8.468;2022-12-10T03:45:01;48.92;;;24.15;;
22064;SDS011;11197;53.110;8.468;2022-12-10T03:47:27;49.80;;;25.05;;
22064;SDS011;11197;53.110;8.468;2022-12-10T03:49:53;47.65;;;23.65;;
22064;SDS011;11197;53.110;8.468;2022-12-10T03:52:19;49.40;;;24.38;;
22064;SDS011;11197;53.110;8.468;2022-12-10T03:54:45;44.08;;;22.73;;
22064;SDS011;11197;53.110;8.468;2022-12-10T03:57:11;52.50;;;24.55;;
22064;SDS011;11197;53.110;8.468;2022-12-10T03:59:37;48.25;;;23.52;;
22064;SDS011;11197;53.110;8.468;2022-12-10T04:02:03;47.78;;;24.20;;
22064;SDS011;11197;53.110;8.468;2022-12-10T04:04:29;51.20;;;24.83;;
22064;SDS011;11197;53.110;8.468;2022-12-10T04:06:55;48.00;;;24.35;;
22064;SDS011;11197;53.110;8.468;2022-12-10T04:09:20;49.25;;;24.83;;
22064;SDS011;11197;53.110;8.468;2022-12-10T04:11:46;51.78;;;25.27;;
22064;SDS011;11197;53.110;8.468;2022-12-10T04:14:12;47.63;;;23.85;;
22064;SDS011;11197;53.110;8.468;2022-12-10T04:16:57;48.90;;;24.40;;
22064;SDS011;11197;53.110;8.468;2022-12-10T04:19:23;50.85;;;24.63;;
22064;SDS011;11197;53.110;8.468;2022-12-10T04:21:50;50.67;;;24.75;;
22064;SDS011;11197;53.110;8.468;2022-12-10T04:24:35;49.55;;;24.10;;
22064;SDS011;11197;53.110;8.468;2022-12-10T04:27:24;46.50;;;23.38;;
22064;SDS011;11197;53.110;8.468;2022-12-10T04:30:11;49.00;;;24.38;;
22064;SDS011;11197;53.110;8.468;2022-12-10T04:32:37;47.38;;;24.38;;
22064;SDS011;11197;53.110;8.468;2022-12-10T04:35:03;48.10;;;23.35;;
22064;SDS011;11197;53.110;8.468;2022-12-10T04:37:30;52.83;;;25.48;;
22064;SDS011;11197;53.110;8.468;2022-12-10T04:39:56;50.00;;;24.75;;
22064;SDS011;11197;53.110;8.468;2022-12-10T04:42:22;52.60;;;25.52;;
22064;SDS011;11197;53.110;8.468;2022-12-10T04:44:48;47.75;;;24.58;;
22064;SDS011;11197;53.110;8.468;2022-12-10T04:47:13;47.42;;;24.25;;
22064;SDS011;11197;53.110;8.468;2022-12-10T04:49:40;51.25;;;25.77;;
22064;SDS011;11197;53.110;8.468;2022-12-10T04:52:06;48.70;;;24.52;;
22064;SDS011;11197;53.110;8.468;2022-12-10T04:54:33;45.15;;;24.38;;
22064;SDS011;11197;53.110;8.468;2022-12-10T04:56:59;49.03;;;25.58;;
22064;SDS011;11197;53.110;8.468;2022-12-10T04:59:25;50.22;;;24.48;;
22064;SDS011;11197;53.110;8.468;2022-12-10T05:01:52;51.22;;;25.63;;
22064;SDS011;11197;53.110;8.468;2022-12-10T05:04:18;45.50;;;24.20;;
22064;SDS011;11197;53.110;8.468;2022-12-10T05:06:44;47.22;;;24.50;;
22064;SDS011;11197;53.110;8.468;2022-12-10T05:09:12;42.60;;;23.48;;
22064;SDS011;11197;53.110;8.468;2022-12-10T05:11:39;49.03;;;25.00;;
22064;SDS011;11197;53.110;8.468;2022-12-10T05:14:12;46.50;;;24.20;;
22064;SDS011;11197;53.110;8.468;2022-12-10T05:16:39;47.22;;;24.20;;
22064;SDS011;11197;53.110;8.468;2022-12-10T05:19:06;46.90;;;24.35;;
22064;SDS011;11197;53.110;8.468;2022-12-10T05:21:31;46.25;;;24.70;;
22064;SDS011;11197;53.110;8.468;2022-12-10T05:24:16;46.33;;;25.15;;
22064;SDS011;11197;53.110;8.468;2022-12-10T05:26:43;45.72;;;25.02;;
22064;SDS011;11197;53.110;8.468;2022-12-10T05:29:09;47.58;;;24.85;;
22064;SDS011;11197;53.110;8.468;2022-12-10T05:31:35;47.53;;;23.92;;
22064;SDS011;11197;53.110;8.468;2022-12-10T05:34:02;45.58;;;24.00;;
22064;SDS011;11197;53.110;8.468;2022-12-10T05:36:29;47.33;;;24.55;;
22064;SDS011;11197;53.110;8.468;2022-12-10T05:38:56;43.97;;;23.55;;
22064;SDS011;11197;53.110;8.468;2022-12-10T05:41:27;48.83;;;24.75;;
22064;SDS011;11197;53.110;8.468;2022-12-10T05:43:55;45.72;;;24.20;;
22064;SDS011;11197;53.110;8.468;2022-12-10T05:46:23;45.75;;;23.77;;
22064;SDS011;11197;53.110;8.468;2022-12-10T05:48:52;42.00;;;23.20;;
22064;SDS011;11197;53.110;8.468;2022-12-10T05:51:20;48.17;;;24.70;;
22064;SDS011;11197;53.110;8.468;2022-12-10T05:53:48;44.08;;;23.33;;
22064;SDS011;11197;53.110;8.468;2022-12-10T05:56:15;44.75;;;23.95;;
22064;SDS011;11197;53.110;8.468;2022-12-10T05:58:44;40.38;;;22.00;;
22064;SDS011;11197;53.110;8.468;2022-12-10T06:01:12;40.88;;;22.52;;
22064;SDS011;11197;53.110;8.468;2022-12-10T06:03:45;41.85;;;22.50;;
22064;SDS011;11197;53.110;8.468;2022-12-10T06:06:12;45.75;;;23.30;;
22064;SDS011;11197;53.110;8.468;2022-12-10T06:08:38;45.30;;;23.65;;
22064;SDS011;11197;53.110;8.468;2022-12-10T06:11:07;43.97;;;23.88;;
22064;SDS011;11197;53.110;8.468;2022-12-10T06:13:35;43.53;;;23.88;;
22064;SDS011;11197;53.110;8.468;2022-12-10T06:16:05;43.92;;;23.00;;
22064;SDS011;11197;53.110;8.468;2022-12-10T06:18:33;43.28;;;23.15;;
22064;SDS011;11197;53.110;8.468;2022-12-10T06:21:02;40.75;;;21.75;;
22064;SDS011;11197;53.110;8.468;2022-12-10T06:23:29;42.40;;;22.98;;
22064;SDS011;11197;53.110;8.468;2022-12-10T06:25:55;43.75;;;23.42;;
22064;SDS011;11197;53.110;8.468;2022-12-10T06:28:21;40.85;;;22.95;;
22064;SDS011;11197;53.110;8.468;2022-12-10T06:30:46;43.08;;;22.40;;
22064;SDS011;11197;53.110;8.468;2022-12-10T06:33:12;42.17;;;22.00;;
22064;SDS011;11197;53.110;8.468;2022-12-10T06:35:38;42.13;;;21.80;;
22064;SDS011;11197;53.110;8.468;2022-12-10T06:38:04;40.92;;;22.52;;
22064;SDS011;11197;53.110;8.468;2022-12-10T06:40:33;45.03;;;23.45;;
22064;SDS011;11197;53.110;8.468;2022-12-10T06:42:58;46.17;;;23.95;;
22064;SDS011;11197;53.110;8.468;2022-12-10T06:45:24;44.92;;;23.55;;
22064;SDS011;11197;53.110;8.468;2022-12-10T06:47:51;43.67;;;23.60;;
22064;SDS011;11197;53.110;8.468;2022-12-10T06:50:17;43.22;;;23.52;;
22064;SDS011;11197;53.110;8.468;2022-12-10T06:52:42;45.92;;;23.52;;
22064;SDS011;11197;53.110;8.468;2022-12-10T06:55:08;42.05;;;23.00;;
22064;SDS011;11197;53.110;8.468;2022-12-10T06:57:35;38.90;;;21.60;;
22064;SDS011;11197;53.110;8.468;2022-12-10T07:00:00;41.92;;;22.88;;
22064;SDS011;11197;53.110;8.468;2022-12-10T07:02:26;42.22;;;22.98;;
22064;SDS011;11197;53.110;8.468;2022-12-10T07:04:52;43.60;;;23.60;;
22064;SDS011;11197;53.110;8.468;2022-12-10T07:07:21;42.92;;;24.27;;
22064;SDS011;11197;53.110;8.468;2022-12-10T07:09:47;44.95;;;23.95;;
22064;SDS011;11197;53.110;8.468;2022-12-10T07:12:16;42.08;;;22.17;;
22064;SDS011;11197;53.110;8.468;2022-12-10T07:14:42;42.67;;;23.08;;
22064;SDS011;11197;53.110;8.468;2022-12-10T07:17:09;43.00;;;23.05;;
22064;SDS011;11197;53.110;8.468;2022-12-10T07:19:35;47.45;;;24.52;;
22064;SDS011;11197;53.110;8.468;2022-12-10T07:22:01;44.22;;;24.08;;
22064;SDS011;11197;53.110;8.468;2022-12-10T07:24:29;44.03;;;23.23;;
22064;SDS011;11197;53.110;8.468;2022-12-10T07:26:55;43.15;;;24.42;;
22064;SDS011;11197;53.110;8.468;2022-12-10T07:29:21;45.55;;;24.25;;
22064;SDS011;11197;53.110;8.468;2022-12-10T07:31:47;40.63;;;22.40;;
22064;SDS011;11197;53.110;8.468;2022-12-10T07:34:14;46.53;;;24.85;;
22064;SDS011;11197;53.110;8.468;2022-12-10T07:36:40;45.40;;;24.45;;
22064;SDS011;11197;53.110;8.468;2022-12-10T07:39:07;45.63;;;24.67;;
22064;SDS011;11197;53.110;8.468;2022-12-10T07:41:34;49.35;;;25.15;;
22064;SDS011;11197;53.110;8.468;2022-12-10T07:44:01;43.22;;;24.17;;
22064;SDS011;11197;53.110;8.468;2022-12-10T07:46:30;49.75;;;26.05;;
22064;SDS011;11197;53.110;8.468;2022-12-10T07:48:56;44.17;;;24.25;;
22064;SDS011;11197;53.110;8.468;2022-12-10T07:51:26;46.50;;;24.73;;
22064;SDS011;11197;53.110;8.468;2022-12-10T07:53:52;44.92;;;24.95;;
22064;SDS011;11197;53.110;8.468;2022-12-10T07:56:18;46.50;;;24.50;;
22064;SDS011;11197;53.110;8.468;2022-12-10T07:58:46;47.38;;;25.35;;
22064;SDS011;11197;53.110;8.468;2022-12-10T08:01:13;44.35;;;24.58;;
22064;SDS011;11197;53.110;8.468;2022-12-10T08:03:44;46.00;;;25.40;;
22064;SDS011;11197;53.110;8.468;2022-12-10T08:06:14;48.55;;;25.42;;
22064;SDS011;11197;53.110;8.468;2022-12-10T08:08:42;47.30;;;25.13;;
22064;SDS011;11197;53.110;8.468;2022-12-10T08:11:09;44.03;;;24.75;;
22064;SDS011;11197;53.110;8.468;2022-12-10T08:13:35;44.38;;;24.35;;
22064;SDS011;11197;53.110;8.468;2022-12-10T08:16:02;48.38;;;25.50;;
22064;SDS011;11197;53.110;8.468;2022-12-10T08:18:33;44.50;;;25.38;;
22064;SDS011;11197;53.110;8.468;2022-12-10T08:21:03;47.05;;;25.38;;
22064;SDS011;11197;53.110;8.468;2022-12-10T08:25:56;47.88;;;25.30;;
22064;SDS011;11197;53.110;8.468;2022-12-10T08:28:21;55.50;;;28.38;;
22064;SDS011;11197;53.110;8.468;2022-12-10T08:30:48;52.22;;;27.77;;
22064;SDS011;11197;53.110;8.468;2022-12-10T08:33:14;54.00;;;26.98;;
22064;SDS011;11197;53.110;8.468;2022-12-10T08:35:40;53.28;;;29.13;;
22064;SDS011;11197;53.110;8.468;2022-12-10T08:38:06;53.00;;;28.40;;
22064;SDS011;11197;53.110;8.468;2022-12-10T08:40:32;52.75;;;28.98;;
22064;SDS011;11197;53.110;8.468;2022-12-10T08:42:59;56.83;;;31.00;;
22064;SDS011;11197;53.110;8.468;2022-12-10T08:45:25;51.42;;;28.38;;
22064;SDS011;11197;53.110;8.468;2022-12-10T08:47:51;50.38;;;28.35;;
22064;SDS011;11197;53.110;8.468;2022-12-10T08:50:17;46.83;;;26.58;;
22064;SDS011;11197;53.110;8.468;2022-12-10T08:52:43;43.78;;;25.90;;
22064;SDS011;11197;53.110;8.468;2022-12-10T08:55:09;47.13;;;26.48;;
22064;SDS011;11197;53.110;8.468;2022-12-10T08:57:35;49.25;;;27.33;;
22064;SDS011;11197;53.110;8.468;2022-12-10T09:00:02;47.25;;;27.55;;
22064;SDS011;11197;53.110;8.468;2022-12-10T09:02:29;46.13;;;27.20;;
22064;SDS011;11197;53.110;8.468;2022-12-10T09:04:54;41.88;;;24.77;;
22064;SDS011;11197;53.110;8.468;2022-12-10T09:07:20;43.05;;;25.88;;
22064;SDS011;11197;53.110;8.468;2022-12-10T09:09:47;42.50;;;25.33;;
22064;SDS011;11197;53.110;8.468;2022-12-10T09:12:12;45.08;;;25.75;;
22064;SDS011;11197;53.110;8.468;2022-12-10T09:14:38;42.30;;;25.42;;
22064;SDS011;11197;53.110;8.468;2022-12-10T09:17:05;41.67;;;24.83;;
22064;SDS011;11197;53.110;8.468;2022-12-10T09:19:31;39.88;;;24.30;;
22064;SDS011;11197;53.110;8.468;2022-12-10T09:21:58;42.95;;;24.60;;
22064;SDS011;11197;53.110;8.468;2022-12-10T09:24:24;45.22;;;25.40;;
22064;SDS011;11197;53.110;8.468;2022-12-10T09:26:50;44.92;;;26.27;;
22064;SDS011;11197;53.110;8.468;2022-12-10T09:29:16;43.08;;;25.27;;
22064;SDS011;11197;53.110;8.468;2022-12-10T09:31:42;42.25;;;23.88;;
22064;SDS011;11197;53.110;8.468;2022-12-10T09:34:08;40.05;;;24.15;;
22064;SDS011;11197;53.110;8.468;2022-12-10T09:36:33;44.28;;;24.67;;
22064;SDS011;11197;53.110;8.468;2022-12-10T09:39:01;41.20;;;24.75;;
22064;SDS011;11197;53.110;8.468;2022-12-10T09:47:08;39.95;;;23.95;;
22064;SDS011;11197;53.110;8.468;2022-12-10T09:52:45;44.15;;;23.75;;
22064;SDS011;11197;53.110;8.468;2022-12-10T09:55:14;42.08;;;24.15;;
22064;SDS011;11197;53.110;8.468;2022-12-10T09:57:45;41.83;;;24.48;;
22064;SDS011;11197;53.110;8.468;2022-12-10T10:03:05;40.53;;;23.83;;
22064;SDS011;11197;53.110;8.468;2022-12-10T10:05:35;41.13;;;24.25;;
22064;SDS011;11197;53.110;8.468;2022-12-10T10:08:14;42.03;;;24.30;;
22064;SDS011;11197;53.110;8.468;2022-12-10T10:10:49;38.28;;;22.88;;
22064;SDS011;11197;53.110;8.468;2022-12-10T10:13:31;40.10;;;23.40;;
22064;SDS011;11197;53.110;8.468;2022-12-10T10:19:05;38.70;;;22.63;;
22064;SDS011;11197;53.110;8.468;2022-12-10T10:21:46;38.20;;;22.63;;
22064;SDS011;11197;53.110;8.468;2022-12-10T10:24:21;36.97;;;21.90;;
22064;SDS011;11197;53.110;8.468;2022-12-10T10:26:51;39.70;;;24.05;;
22064;SDS011;11197;53.110;8.468;2022-12-10T10:29:22;39.15;;;23.27;;
22064;SDS011;11197;53.110;8.468;2022-12-10T10:32:10;41.13;;;22.70;;
22064;SDS011;11197;53.110;8.468;2022-12-10T10:34:59;38.95;;;22.88;;
22064;SDS011;11197;53.110;8.468;2022-12-10T10:37:26;36.63;;;21.60;;
22064;SDS011;11197;53.110;8.468;2022-12-10T10:39:57;36.95;;;21.38;;
22064;SDS011;11197;53.110;8.468;2022-12-10T10:42:40;35.42;;;21.33;;
22064;SDS011;11197;53.110;8.468;2022-12-10T10:45:50;40.00;;;21.88;;
22064;SDS011;11197;53.110;8.468;2022-12-10T10:50:40;27.13;;;16.73;;
22064;SDS011;11197;53.110;8.468;2022-12-10T10:53:28;36.22;;;21.50;;
22064;SDS011;11197;53.110;8.468;2022-12-10T10:56:07;36.60;;;21.60;;
22064;SDS011;11197;53.110;8.468;2022-12-10T10:58:35;35.95;;;21.05;;
22064;SDS011;11197;53.110;8.468;2022-12-10T11:01:10;33.42;;;20.15;;
22064;SDS011;11197;53.110;8.468;2022-12-10T11:03:36;34.70;;;21.02;;
22064;SDS011;11197;53.110;8.468;2022-12-10T11:06:09;32.45;;;20.05;;
22064;SDS011;11197;53.110;8.468;2022-12-10T11:08:38;32.78;;;19.98;;
22064;SDS011;11197;53.110;8.468;2022-12-10T11:11:06;33.97;;;19.35;;
22064;SDS011;11197;53.110;8.468;2022-12-10T11:13:45;30.73;;;18.65;;
22064;SDS011;11197;53.110;8.468;2022-12-10T11:21:18;28.80;;;17.73;;
22064;SDS011;11197;53.110;8.468;2022-12-10T11:23:48;31.17;;;17.27;;
22064;SDS011;11197;53.110;8.468;2022-12-10T11:41:58;33.72;;;18.88;;
22064;SDS011;11197;53.110;8.468;2022-12-10T11:44:34;31.55;;;19.25;;
22064;SDS011;11197;53.110;8.468;2022-12-10T11:47:23;32.35;;;18.60;;
22064;SDS011;11197;53.110;8.468;2022-12-10T11:55:36;33.95;;;18.50;;
22064;SDS011;11197;53.110;8.468;2022-12-10T11:58:22;32.97;;;18.60;;
22064;SDS011;11197;53.110;8.468;2022-12-10T12:01:20;31.05;;;17.75;;
22064;SDS011;11197;53.110;8.468;2022-12-10T12:12:05;33.13;;;18.98;;
22064;SDS011;11197;53.110;8.468;2022-12-10T12:17:18;36.85;;;20.52;;
22064;SDS011;11197;53.110;8.468;2022-12-10T12:19:46;35.60;;;19.85;;
22064;SDS011;11197;53.110;8.468;2022-12-10T12:22:28;34.65;;;19.10;;
22064;SDS011;11197;53.110;8.468;2022-12-10T12:25:00;34.88;;;19.88;;
22064;SDS011;11197;53.110;8.468;2022-12-10T12:27:39;34.28;;;18.67;;
22064;SDS011;11197;53.110;8.468;2022-12-10T12:35:44;33.97;;;19.20;;
22064;SDS011;11197;53.110;8.468;2022-12-10T12:43:58;36.35;;;19.58;;
22064;SDS011;11197;53.110;8.468;2022-12-10T12:46:34;37.58;;;20.88;;
22064;SDS011;11197;53.110;8.468;2022-12-10T12:49:18;40.70;;;21.77;;
22064;SDS011;11197;53.110;8.468;2022-12-10T12:54:47;37.35;;;20.13;;
22064;SDS011;11197;53.110;8.468;2022-12-10T12:57:20;38.33;;;20.17;;
22064;SDS011;11197;53.110;8.468;2022-12-10T13:00:00;41.92;;;20.55;;
22064;SDS011;11197;53.110;8.468;2022-12-10T13:05:37;37.78;;;20.63;;
22064;SDS011;11197;53.110;8.468;2022-12-10T13:10:50;38.05;;;19.83;;
22064;SDS011;11197;53.110;8.468;2022-12-10T13:13:28;37.75;;;20.15;;
22064;SDS011;11197;53.110;8.468;2022-12-10T13:30:00;36.20;;;19.58;;
22064;SDS011;11197;53.110;8.468;2022-12-10T13:33:05;39.03;;;20.60;;
22064;SDS011;11197;53.110;8.468;2022-12-10T13:35:49;37.35;;;19.95;;
22064;SDS011;11197;53.110;8.468;2022-12-10T13:38:23;36.85;;;20.33;;
22064;SDS011;11197;53.110;8.468;2022-12-10T13:40:58;38.03;;;21.00;;
22064;SDS011;11197;53.110;8.468;2022-12-10T13:43:58;37.45;;;19.85;;
22064;SDS011;11197;53.110;8.468;2022-12-10T13:47:45;35.60;;;19.05;;
22064;SDS011;11197;53.110;8.468;2022-12-10T14:06:18;37.53;;;19.92;;
22064;SDS011;11197;53.110;8.468;2022-12-10T14:12:03;30.25;;;17.33;;
22064;SDS011;11197;53.110;8.468;2022-12-10T14:17:12;36.08;;;19.27;;
22064;SDS011;11197;53.110;8.468;2022-12-10T14:19:44;33.65;;;18.30;;
22064;SDS011;11197;53.110;8.468;2022-12-10T14:22:18;33.50;;;18.55;;
22064;SDS011;11197;53.110;8.468;2022-12-10T14:24:52;31.63;;;18.80;;
22064;SDS011;11197;53.110;8.468;2022-12-10T14:27:19;31.38;;;18.35;;
22064;SDS011;11197;53.110;8.468;2022-12-10T14:29:51;34.88;;;18.95;;
22064;SDS011;11197;53.110;8.468;2022-12-10T14:32:29;31.20;;;17.95;;
22064;SDS011;11197;53.110;8.468;2022-12-10T14:35:02;33.22;;;19.75;;
22064;SDS011;11197;53.110;8.468;2022-12-10T14:37:33;33.58;;;18.77;;
22064;SDS011;11197;53.110;8.468;2022-12-10T14:40:05;31.60;;;17.48;;
22064;SDS011;11197;53.110;8.468;2022-12-10T14:42:32;30.75;;;18.27;;
22064;SDS011;11197;53.110;8.468;2022-12-10T14:44:59;30.65;;;17.70;;
22064;SDS011;11197;53.110;8.468;2022-12-10T14:47:32;35.80;;;18.20;;
22064;SDS011;11197;53.110;8.468;2022-12-10T14:50:02;34.50;;;18.20;;
22064;SDS011;11197;53.110;8.468;2022-12-10T14:52:33;32.53;;;18.45;;
22064;SDS011;11197;53.110;8.468;2022-12-10T14:55:04;30.95;;;18.50;;
22064;SDS011;11197;53.110;8.468;2022-12-10T14:57:34;31.23;;;18.20;;
22064;SDS011;11197;53.110;8.468;2022-12-10T15:00:15;34.85;;;18.10;;
22064;SDS011;11197;53.110;8.468;2022-12-10T15:02:59;29.55;;;17.85;;
22064;SDS011;11197;53.110;8.468;2022-12-10T15:05:31;31.77;;;17.58;;
22064;SDS011;11197;53.110;8.468;2022-12-10T15:08:15;34.08;;;19.40;;
22064;SDS011;11197;53.110;8.468;2022-12-10T15:10:43;31.98;;;17.85;;
22064;SDS011;11197;53.110;8.468;2022-12-10T15:13:22;31.52;;;17.52;;
22064;SDS011;11197;53.110;8.468;2022-12-10T15:16:00;29.35;;;16.95;;
22064;SDS011;11197;53.110;8.468;2022-12-10T15:18:33;45.20;;;16.92;;
22064;SDS011;11197;53.110;8.468;2022-12-10T15:21:03;45.35;;;23.00;;
22064;SDS011;11197;53.110;8.468;2022-12-10T15:23:38;37.90;;;20.08;;
22064;SDS011;11197;53.110;8.468;2022-12-10T15:28:35;33.75;;;18.23;;
22064;SDS011;11197;53.110;8.468;2022-12-10T15:33:44;28.48;;;17.58;;
22064;SDS011;11197;53.110;8.468;2022-12-10T15:38:57;32.45;;;18.42;;
22064;SDS011;11197;53.110;8.468;2022-12-10T15:42:24;30.95;;;17.92;;
22064;SDS011;11197;53.110;8.468;2022-12-10T15:44:37;36.13;;;18.95;;
22064;SDS011;11197;53.110;8.468;2022-12-10T15:49:43;34.15;;;18.75;;
22064;SDS011;11197;53.110;8.468;2022-12-10T15:52:29;30.50;;;18.33;;
22064;SDS011;11197;53.110;8.468;2022-12-10T15:54:56;34.10;;;18.35;;
22064;SDS011;11197;53.110;8.468;2022-12-10T15:57:24;31.58;;;17.83;;
22064;SDS011;11197;53.110;8.468;2022-12-10T15:59:54;30.50;;;18.30;;
22064;SDS011;11197;53.110;8.468;2022-12-10T16:02:39;33.80;;;19.50;;
22064;SDS011;11197;53.110;8.468;2022-12-10T16:07:41;31.13;;;18.33;;
22064;SDS011;11197;53.110;8.468;2022-12-10T16:10:09;33.50;;;18.08;;
22064;SDS011;11197;53.110;8.468;2022-12-10T16:12:36;30.10;;;17.88;;
22064;SDS011;11197;53.110;8.468;2022-12-10T16:15:04;35.25;;;20.08;;
22064;SDS011;11197;53.110;8.468;2022-12-10T16:17:32;37.25;;;19.98;;
22064;SDS011;11197;53.110;8.468;2022-12-10T16:22:47;33.13;;;18.85;;
22064;SDS011;11197;53.110;8.468;2022-12-10T16:25:13;29.35;;;17.98;;
22064;SDS011;11197;53.110;8.468;2022-12-10T16:27:39;32.35;;;18.20;;
22064;SDS011;11197;53.110;8.468;2022-12-10T16:32:46;34.42;;;19.67;;
22064;SDS011;11197;53.110;8.468;2022-12-10T16:35:12;37.50;;;19.90;;
22064;SDS011;11197;53.110;8.468;2022-12-10T16:37:43;34.33;;;18.20;;
22064;SDS011;11197;53.110;8.468;2022-12-10T16:40:11;32.58;;;19.02;;
22064;SDS011;11197;53.110;8.468;2022-12-10T16:42:38;34.88;;;19.30;;
22064;SDS011;11197;53.110;8.468;2022-12-10T16:45:11;32.95;;;19.33;;
22064;SDS011;11197;53.110;8.468;2022-12-10T16:47:41;32.70;;;19.20;;
22064;SDS011;11197;53.110;8.468;2022-12-10T16:50:08;34.70;;;19.13;;
22064;SDS011;11197;53.110;8.468;2022-12-10T16:52:34;33.15;;;19.20;;
22064;SDS011;11197;53.110;8.468;2022-12-10T16:55:00;32.63;;;19.63;;
22064;SDS011;11197;53.110;8.468;2022-12-10T16:57:27;34.38;;;20.05;;
22064;SDS011;11197;53.110;8.468;2022-12-10T16:59:53;32.28;;;19.23;;
22064;SDS011;11197;53.110;8.468;2022-12-10T17:02:20;33.22;;;19.85;;
22064;SDS011;11197;53.110;8.468;2022-12-10T17:04:46;32.80;;;19.50;;
22064;SDS011;11197;53.110;8.468;2022-12-10T17:07:12;43.40;;;23.70;;
22064;SDS011;11197;53.110;8.468;2022-12-10T17:09:39;45.25;;;24.35;;
22064;SDS011;11197;53.110;8.468;2022-12-10T17:12:06;43.70;;;24.30;;
22064;SDS011;11197;53.110;8.468;2022-12-10T17:14:34;39.20;;;22.92;;